createdAt,value
2022-11-01T00:02:02.645Z,13.90
2022-11-01T00:04:30.226Z,13.88
2022-11-01T00:06:57.607Z,13.43
2022-11-01T00:09:24.945Z,13.32
2022-11-01T00:11:52.528Z,15.50
2022-11-01T00:14:19.888Z,13.93
2022-11-01T00:16:47.198Z,14.40
2022-11-01T00:19:14.883Z,13.73
2022-11-01T00:21:42.196Z,14.00
2022-11-01T00:24:09.572Z,13.35
2022-11-01T00:26:37.265Z,13.18
2022-11-01T00:29:04.603Z,14.32
2022-11-01T00:31:31.978Z,14.10
2022-11-01T00:34:03.668Z,12.95
2022-11-01T00:36:31.794Z,14.45
2022-11-01T00:38:59.130Z,13.85
2022-11-01T00:41:26.750Z,14.05
2022-11-01T00:43:54.175Z,14.73
2022-11-01T00:46:21.504Z,12.90
2022-11-01T00:48:49.387Z,12.80
2022-11-01T00:51:16.725Z,11.75
2022-11-01T00:53:44.040Z,12.82
2022-11-01T00:56:11.653Z,11.23
2022-11-01T00:58:38.948Z,13.00
2022-11-01T01:01:06.414Z,12.85
2022-11-01T01:03:34.116Z,15.10
2022-11-01T01:06:01.453Z,13.77
2022-11-01T01:08:28.933Z,13.90
2022-11-01T01:10:56.506Z,13.30
2022-11-01T01:13:24.040Z,13.70
2022-11-01T01:15:51.352Z,13.60
2022-11-01T01:18:18.948Z,12.93
2022-11-01T01:20:46.257Z,14.80
2022-11-01T01:23:13.613Z,13.88
2022-11-01T01:25:41.727Z,12.95
2022-11-01T01:28:09.382Z,14.05
2022-11-01T01:30:39.834Z,13.93
2022-11-01T01:33:07.480Z,14.30
2022-11-01T01:35:34.847Z,13.73
2022-11-01T01:38:02.411Z,15.30
2022-11-01T01:40:30.372Z,14.27
2022-11-01T01:42:57.695Z,13.38
2022-11-01T01:45:33.069Z,14.20
2022-11-01T01:48:22.317Z,12.93
2022-11-01T01:51:02.535Z,14.65
2022-11-01T01:53:31.791Z,14.55
2022-11-01T01:56:03.645Z,14.05
2022-11-01T01:58:45.190Z,13.27
2022-11-01T02:01:12.644Z,13.30
2022-11-01T02:03:40.307Z,12.80
2022-11-01T02:06:15.814Z,13.77
2022-11-01T02:08:47.982Z,11.77
2022-11-01T02:11:16.843Z,14.65
2022-11-01T02:13:44.209Z,13.43
2022-11-01T02:16:26.369Z,12.77
2022-11-01T02:19:06.114Z,13.60
2022-11-01T02:21:54.639Z,15.30
2022-11-01T02:24:49.410Z,15.07
2022-11-01T02:27:40.384Z,16.27
2022-11-01T02:30:13.695Z,15.95
2022-11-01T02:33:06.692Z,16.42
2022-11-01T02:35:46.585Z,15.77
2022-11-01T02:38:27.413Z,17.73
2022-11-01T02:41:15.761Z,15.63
2022-11-01T02:43:58.212Z,17.02
2022-11-01T02:46:51.924Z,17.27
2022-11-01T02:49:19.294Z,16.55
2022-11-01T02:51:46.902Z,16.33
2022-11-01T02:54:27.883Z,17.12
2022-11-01T02:56:55.471Z,16.52
2022-11-01T02:59:27.970Z,16.70
2022-11-01T03:02:08.557Z,16.90
2022-11-01T03:04:35.949Z,15.98
2022-11-01T03:07:05.506Z,17.87
2022-11-01T03:09:33.225Z,18.50
2022-11-01T03:12:02.533Z,17.00
2022-11-01T03:14:29.970Z,16.50
2022-11-01T03:17:02.984Z,17.73
2022-11-01T03:19:36.560Z,16.27
2022-11-01T03:22:24.732Z,15.77
2022-11-01T03:24:59.960Z,17.02
2022-11-01T03:27:33.048Z,17.00
2022-11-01T03:30:03.518Z,18.05
2022-11-01T03:32:34.436Z,17.37
2022-11-01T03:35:02.055Z,18.45
2022-11-01T03:37:29.384Z,16.85
2022-11-01T03:39:56.750Z,17.05
2022-11-01T03:42:24.338Z,16.62
2022-11-01T03:44:54.383Z,16.12
2022-11-01T03:47:21.720Z,18.33
2022-11-01T03:50:12.815Z,17.33
2022-11-01T03:52:40.256Z,16.50
2022-11-01T03:55:20.669Z,16.30
2022-11-01T03:57:52.826Z,16.12
2022-11-01T04:00:25.052Z,15.10
2022-11-01T04:02:53.707Z,17.52
2022-11-01T04:05:21.744Z,19.30
2022-11-01T04:07:49.375Z,18.37
2022-11-01T04:10:17.233Z,17.62
2022-11-01T04:12:45.233Z,20.37
2022-11-01T04:15:31.261Z,16.62
2022-11-01T04:21:07.894Z,17.80
2022-11-01T04:23:35.566Z,16.95
2022-11-01T04:26:03.082Z,17.73
2022-11-01T04:28:30.416Z,19.25
2022-11-01T04:30:57.990Z,19.73
2022-11-01T04:33:25.360Z,18.33
2022-11-01T04:35:52.720Z,18.33
2022-11-01T04:38:20.279Z,16.62
2022-11-01T04:40:47.653Z,17.17
2022-11-01T04:43:15.348Z,17.55
2022-11-01T04:45:42.951Z,16.67
2022-11-01T04:48:14.006Z,16.48
2022-11-01T04:50:42.062Z,16.35
2022-11-01T04:53:10.114Z,16.42
2022-11-01T04:55:37.531Z,16.40
2022-11-01T04:58:06.631Z,17.85
2022-11-01T05:00:34.387Z,16.75
2022-11-01T05:03:08.217Z,15.35
2022-11-01T05:05:36.307Z,16.55
2022-11-01T05:08:08.662Z,15.93
2022-11-01T05:10:37.770Z,14.98
2022-11-01T05:13:05.816Z,16.15
2022-11-01T05:15:33.745Z,16.98
2022-11-01T05:18:02.941Z,16.55
2022-11-01T05:20:33.144Z,16.17
2022-11-01T05:23:03.983Z,17.27
2022-11-01T05:25:34.019Z,16.55
2022-11-01T05:28:07.355Z,17.08
2022-11-01T05:30:35.224Z,17.12
2022-11-01T05:33:02.793Z,17.52
2022-11-01T05:35:30.264Z,16.83
2022-11-01T05:37:57.869Z,16.70
2022-11-01T05:40:25.234Z,17.23
2022-11-01T05:42:52.755Z,16.27
2022-11-01T05:45:20.486Z,16.08
2022-11-01T05:47:47.855Z,17.17
2022-11-01T05:50:15.564Z,16.20
2022-11-01T05:52:43.688Z,18.00
2022-11-01T05:55:11.187Z,16.90
2022-11-01T05:57:38.630Z,17.62
2022-11-01T06:00:06.823Z,18.30
2022-11-01T06:02:39.309Z,17.98
2022-11-01T06:05:07.096Z,18.10
2022-11-01T06:07:35.968Z,18.10
2022-11-01T06:10:04.422Z,20.08
2022-11-01T06:12:32.069Z,17.73
2022-11-01T06:14:59.396Z,16.10
2022-11-01T06:17:26.814Z,19.92
2022-11-01T06:19:54.409Z,20.88
2022-11-01T06:22:21.743Z,19.02
2022-11-01T06:24:49.064Z,19.67
2022-11-01T06:27:16.835Z,19.67
2022-11-01T06:29:44.178Z,19.12
2022-11-01T06:32:11.492Z,18.70
2022-11-01T06:34:42.342Z,18.20
2022-11-01T06:37:12.233Z,19.27
2022-11-01T06:39:39.813Z,18.35
2022-11-01T06:42:07.135Z,17.58
2022-11-01T06:44:34.465Z,17.35
2022-11-01T06:47:02.083Z,17.98
2022-11-01T06:49:30.493Z,18.15
2022-11-01T06:51:57.799Z,17.35
2022-11-01T06:54:25.795Z,17.55
2022-11-01T06:56:53.154Z,18.65
2022-11-01T06:59:20.508Z,17.65
2022-11-01T07:01:48.213Z,18.25
2022-11-01T07:04:15.699Z,16.83
2022-11-01T07:06:43.051Z,18.27
2022-11-01T07:09:10.944Z,17.17
2022-11-01T07:11:38.342Z,17.05
2022-11-01T07:14:05.811Z,17.30
2022-11-01T07:16:33.566Z,18.40
2022-11-01T07:19:00.891Z,17.52
2022-11-01T07:21:28.743Z,17.48
2022-11-01T07:23:56.357Z,17.85
2022-11-01T07:26:23.690Z,19.15
2022-11-01T07:28:50.991Z,16.27
2022-11-01T07:31:18.814Z,18.12
2022-11-01T07:33:46.150Z,19.25
2022-11-01T07:36:13.492Z,18.25
2022-11-01T07:38:41.105Z,18.42
2022-11-01T07:41:09.151Z,17.10
2022-11-01T07:43:36.763Z,18.65
2022-11-01T07:46:05.677Z,17.67
2022-11-01T07:48:33.547Z,17.27
2022-11-01T07:51:02.676Z,17.67
2022-11-01T07:53:30.327Z,18.17
2022-11-01T07:55:57.682Z,16.55
2022-11-01T07:58:25.014Z,16.00
2022-11-01T08:00:52.651Z,16.42
2022-11-01T08:03:20.329Z,17.15
2022-11-01T08:05:47.908Z,15.48
2022-11-01T08:08:15.461Z,17.52
2022-11-01T08:10:43.090Z,16.15
2022-11-01T08:13:17.474Z,18.05
2022-11-01T08:15:45.609Z,18.10
2022-11-01T08:18:13.055Z,16.45
2022-11-01T08:20:41.178Z,16.80
2022-11-01T08:23:08.858Z,18.10
2022-11-01T08:25:36.341Z,17.33
2022-11-01T08:28:07.746Z,17.30
2022-11-01T08:30:36.293Z,17.27
2022-11-01T08:33:04.185Z,16.17
2022-11-01T08:35:32.761Z,16.35
2022-11-01T08:38:00.398Z,17.77
2022-11-01T08:40:30.587Z,16.73
2022-11-01T08:42:57.995Z,16.35
2022-11-01T08:45:25.748Z,14.98
2022-11-01T08:48:03.618Z,16.52
2022-11-01T08:50:31.342Z,17.02
2022-11-01T08:52:58.849Z,17.12
2022-11-01T08:55:26.550Z,16.55
2022-11-01T08:57:54.184Z,17.50
2022-11-01T09:00:21.557Z,16.95
2022-11-01T09:02:48.875Z,17.45
2022-11-01T09:05:16.590Z,19.17
2022-11-01T09:07:43.928Z,15.85
2022-11-01T09:10:11.837Z,18.02
2022-11-01T09:15:07.859Z,18.02
2022-11-01T09:17:35.364Z,16.75
2022-11-01T09:20:04.580Z,20.10
2022-11-01T09:22:31.959Z,25.80
2022-11-01T09:24:59.310Z,20.48
2022-11-01T09:27:26.901Z,18.95
2022-11-01T09:29:54.329Z,19.80
2022-11-01T09:32:21.680Z,20.30
2022-11-01T09:34:49.275Z,17.55
2022-11-01T09:37:16.783Z,18.00
2022-11-01T09:39:44.107Z,18.40
2022-11-01T09:42:35.728Z,18.10
2022-11-01T09:45:06.098Z,17.73
2022-11-01T09:47:33.910Z,16.83
2022-11-01T09:50:01.060Z,18.65
2022-11-01T09:52:28.396Z,17.25
2022-11-01T09:54:55.962Z,19.55
2022-11-01T09:57:30.454Z,18.20
2022-11-01T10:00:04.274Z,17.90
2022-11-01T10:02:52.579Z,17.05
2022-11-01T10:05:29.307Z,17.00
2022-11-01T10:08:21.492Z,17.45
2022-11-01T10:11:15.061Z,18.12
2022-11-01T10:14:07.951Z,17.92
2022-11-01T10:16:37.111Z,17.37
2022-11-01T10:19:05.384Z,17.45
2022-11-01T10:21:42.511Z,18.25
2022-11-01T10:24:21.294Z,17.65
2022-11-01T10:26:50.344Z,17.55
2022-11-01T10:29:23.170Z,19.73
2022-11-01T10:31:51.829Z,17.12
2022-11-01T10:34:35.675Z,18.60
2022-11-01T10:37:22.182Z,19.25
2022-11-01T10:39:58.001Z,18.12
2022-11-01T10:42:29.071Z,19.05
2022-11-01T10:44:59.627Z,17.37
2022-11-01T10:47:28.054Z,19.58
2022-11-01T10:50:14.353Z,20.15
2022-11-01T10:52:52.016Z,18.42
2022-11-01T10:55:39.621Z,20.25
2022-11-01T10:58:24.760Z,20.73
2022-11-01T11:00:52.148Z,18.52
2022-11-01T11:03:23.277Z,20.08
2022-11-01T11:05:51.258Z,20.90
2022-11-01T11:08:19.896Z,18.70
2022-11-01T11:10:47.532Z,19.23
2022-11-01T11:13:16.915Z,21.58
2022-11-01T11:15:45.888Z,19.45
2022-11-01T11:18:22.848Z,20.85
2022-11-01T11:20:52.005Z,19.45
2022-11-01T11:23:21.702Z,20.67
2022-11-01T11:25:50.502Z,21.60
2022-11-01T11:28:22.155Z,19.95
2022-11-01T11:30:49.751Z,19.73
2022-11-01T11:33:17.439Z,22.73
2022-11-01T11:35:56.024Z,22.73
2022-11-01T11:38:43.842Z,21.60
2022-11-01T11:41:12.546Z,23.30
2022-11-01T11:43:41.977Z,21.80
2022-11-01T11:46:15.803Z,21.95
2022-11-01T11:48:53.146Z,22.52
2022-11-01T11:51:21.193Z,22.08
2022-11-01T11:54:07.553Z,21.48
2022-11-01T11:56:34.932Z,21.08
2022-11-01T11:59:08.532Z,21.12
2022-11-01T12:01:36.224Z,21.08
2022-11-01T12:04:12.796Z,22.80
2022-11-01T12:06:46.061Z,22.05
2022-11-01T12:09:34.092Z,22.15
2022-11-01T12:12:17.980Z,22.40
2022-11-01T12:14:45.630Z,19.15
2022-11-01T12:17:35.871Z,20.88
2022-11-01T12:20:16.564Z,22.05
2022-11-01T12:23:07.064Z,22.77
2022-11-01T12:25:35.660Z,21.52
2022-11-01T12:28:05.059Z,21.45
2022-11-01T12:30:33.627Z,20.77
2022-11-01T12:33:30.380Z,22.67
2022-11-01T12:35:57.725Z,22.30
2022-11-01T12:38:45.797Z,22.27
2022-11-01T12:41:29.707Z,20.67
2022-11-01T12:44:18.708Z,20.25
2022-11-01T12:46:59.078Z,19.27
2022-11-01T12:49:34.226Z,18.33
2022-11-01T12:52:08.511Z,18.15
2022-11-01T12:54:39.025Z,20.80
2022-11-01T12:57:13.251Z,21.87
2022-11-01T12:59:40.824Z,20.37
2022-11-01T13:02:08.090Z,21.67
2022-11-01T13:04:37.366Z,21.87
2022-11-01T13:07:21.117Z,22.62
2022-11-01T13:10:05.235Z,21.00
2022-11-01T13:12:51.074Z,22.40
2022-11-01T13:15:45.528Z,20.55
2022-11-01T13:18:25.748Z,23.15
2022-11-01T13:20:58.140Z,21.33
2022-11-01T13:23:37.660Z,21.05
2022-11-01T13:26:24.633Z,21.00
2022-11-01T13:29:27.046Z,21.08
2022-11-01T13:32:07.518Z,21.25
2022-11-01T13:34:56.619Z,20.33
2022-11-01T13:37:32.760Z,21.10
2022-11-01T13:43:04.262Z,21.92
2022-11-01T13:45:53.805Z,20.85
2022-11-01T13:48:36.084Z,21.27
2022-11-01T13:51:15.846Z,20.20
2022-11-01T13:53:49.893Z,20.73
2022-11-01T13:56:30.865Z,19.52
2022-11-01T13:58:58.836Z,22.27
2022-11-01T14:01:36.844Z,21.00
2022-11-01T14:04:13.682Z,21.75
2022-11-01T14:09:21.171Z,20.55
2022-11-01T14:11:48.963Z,22.73
2022-11-01T14:14:31.776Z,21.95
2022-11-01T14:17:20.698Z,21.62
2022-11-01T14:20:10.752Z,20.75
2022-11-01T14:22:39.934Z,22.90
2022-11-01T14:25:13.590Z,21.65
2022-11-01T14:27:50.437Z,22.10
2022-11-01T14:30:21.135Z,23.20
2022-11-01T14:32:53.963Z,22.05
2022-11-01T14:35:23.113Z,22.67
2022-11-01T14:37:52.582Z,21.85
2022-11-01T14:40:34.278Z,21.60
2022-11-01T14:43:30.931Z,22.62
2022-11-01T14:46:00.855Z,21.70
2022-11-01T14:48:29.898Z,23.00
2022-11-01T14:51:05.110Z,23.38
2022-11-01T14:53:34.008Z,23.17
2022-11-01T14:56:38.391Z,22.92
2022-11-01T14:59:19.741Z,24.63
2022-11-01T15:01:48.752Z,34.08
2022-11-01T15:04:27.544Z,24.70
2022-11-01T15:06:55.209Z,29.83
2022-11-01T15:09:24.160Z,29.10
2022-11-01T15:11:53.062Z,32.85
2022-11-01T15:14:27.468Z,28.85
2022-11-01T15:16:55.053Z,25.60
2022-11-01T15:19:28.445Z,23.35
2022-11-01T15:22:01.018Z,24.73
2022-11-01T15:24:28.774Z,29.30
2022-11-01T15:26:56.495Z,27.52
2022-11-01T15:29:24.864Z,27.62
2022-11-01T15:31:59.072Z,30.33
2022-11-01T15:34:28.173Z,24.95
2022-11-01T15:36:55.767Z,26.48
2022-11-01T15:39:28.995Z,31.12
2022-11-01T15:41:57.751Z,25.85
2022-11-01T15:44:26.511Z,24.67
2022-11-01T15:46:55.742Z,24.98
2022-11-01T15:49:28.767Z,22.17
2022-11-01T15:51:58.315Z,22.90
2022-11-01T15:54:47.346Z,23.58
2022-11-01T15:57:38.752Z,22.15
2022-11-01T16:00:27.406Z,21.70
2022-11-01T16:03:18.936Z,22.13
2022-11-01T16:05:59.809Z,21.37
2022-11-01T16:08:30.241Z,21.40
2022-11-01T16:10:57.563Z,23.65
2022-11-01T16:13:24.896Z,22.58
2022-11-01T16:16:05.771Z,24.75
2022-11-01T16:18:34.245Z,23.62
2022-11-01T16:21:03.534Z,23.00
2022-11-01T16:23:32.259Z,24.27
2022-11-01T16:26:01.454Z,26.15
2022-11-01T16:28:31.612Z,24.08
2022-11-01T16:30:58.979Z,23.87
2022-11-01T16:33:38.006Z,23.27
2022-11-01T16:36:20.924Z,22.37
2022-11-01T16:38:54.643Z,24.10
2022-11-01T16:41:24.139Z,22.35
2022-11-01T16:43:55.607Z,22.02
2022-11-01T16:46:24.375Z,24.30
2022-11-01T16:49:05.721Z,24.23
2022-11-01T16:51:33.505Z,24.95
2022-11-01T16:54:01.256Z,23.75
2022-11-01T16:56:36.592Z,23.83
2022-11-01T16:59:14.686Z,25.83
2022-11-01T17:01:42.097Z,25.35
2022-11-01T17:04:10.314Z,27.85
2022-11-01T17:06:39.055Z,25.02
2022-11-01T17:09:11.932Z,25.35
2022-11-01T17:11:39.985Z,28.38
2022-11-01T17:14:07.347Z,26.05
2022-11-01T17:16:34.681Z,27.05
2022-11-01T17:19:02.304Z,26.87
2022-11-01T17:21:30.434Z,26.23
2022-11-01T17:23:57.781Z,27.33
2022-11-01T17:26:26.518Z,26.92
2022-11-01T17:28:53.897Z,26.58
2022-11-01T17:31:21.247Z,27.05
2022-11-01T17:33:48.847Z,25.92
2022-11-01T17:36:16.406Z,28.15
2022-11-01T17:38:44.891Z,27.85
2022-11-01T17:41:16.686Z,24.92
2022-11-01T17:43:44.119Z,27.52
2022-11-01T17:46:17.490Z,23.80
2022-11-01T17:48:44.856Z,27.77
2022-11-01T17:51:12.678Z,27.25
2022-11-01T17:53:42.117Z,24.85
2022-11-01T17:56:09.638Z,26.55
2022-11-01T17:58:37.285Z,26.35
2022-11-01T18:01:04.929Z,26.33
2022-11-01T18:03:32.585Z,26.12
2022-11-01T18:05:59.940Z,25.70
2022-11-01T18:08:27.974Z,26.12
2022-11-01T18:11:33.251Z,26.83
2022-11-01T18:14:20.604Z,25.90
2022-11-01T18:17:03.157Z,25.98
2022-11-01T18:19:34.518Z,27.58
2022-11-01T18:22:29.705Z,28.45
2022-11-01T18:25:03.423Z,26.20
2022-11-01T18:27:36.103Z,27.23
2022-11-01T18:30:17.606Z,26.98
2022-11-01T18:32:46.869Z,27.62
2022-11-01T18:35:33.205Z,29.15
2022-11-01T18:38:32.437Z,27.45
2022-11-01T18:41:00.977Z,27.30
2022-11-01T18:43:39.085Z,25.30
2022-11-01T18:46:26.918Z,27.55
2022-11-01T18:48:59.432Z,25.92
2022-11-01T18:51:33.391Z,26.35
2022-11-01T18:54:10.161Z,28.45
2022-11-01T18:59:15.855Z,25.40
2022-11-01T19:01:43.993Z,27.00
2022-11-01T19:04:21.553Z,26.77
2022-11-01T19:06:48.913Z,25.62
2022-11-01T19:09:21.640Z,25.35
2022-11-01T19:11:53.786Z,28.77
2022-11-01T19:14:21.541Z,27.77
2022-11-01T19:16:49.412Z,25.37
2022-11-01T19:19:17.932Z,26.02
2022-11-01T19:21:45.537Z,25.42
2022-11-01T19:24:31.605Z,24.77
2022-11-01T19:29:26.982Z,24.02
2022-11-01T19:31:55.540Z,24.00
2022-11-01T19:34:24.511Z,24.27
2022-11-01T19:36:52.707Z,23.55
2022-11-01T19:39:24.004Z,23.87
2022-11-01T19:41:52.744Z,24.48
2022-11-01T19:44:24.421Z,24.87
2022-11-01T19:46:59.499Z,25.40
2022-11-01T19:49:30.086Z,24.37
2022-11-01T19:52:03.256Z,25.05
2022-11-01T19:54:31.045Z,23.05
2022-11-01T19:56:59.734Z,21.62
2022-11-01T19:59:27.078Z,26.60
2022-11-01T20:01:54.549Z,24.45
2022-11-01T20:04:28.186Z,21.55
2022-11-01T20:07:01.800Z,21.62
2022-11-01T20:09:35.794Z,21.77
2022-11-01T20:12:03.250Z,21.52
2022-11-01T20:14:30.900Z,22.83
2022-11-01T20:16:58.256Z,21.05
2022-11-01T20:19:25.614Z,20.45
2022-11-01T20:21:53.226Z,20.40
2022-11-01T20:24:20.555Z,20.27
2022-11-01T20:26:47.872Z,20.45
2022-11-01T20:29:15.477Z,19.60
2022-11-01T20:31:42.870Z,22.35
2022-11-01T20:34:10.225Z,19.75
2022-11-01T20:36:38.678Z,18.25
2022-11-01T20:39:08.128Z,19.92
2022-11-01T20:41:38.277Z,20.00
2022-11-01T20:44:05.674Z,18.55
2022-11-01T20:46:32.978Z,18.60
2022-11-01T20:49:00.576Z,18.37
2022-11-01T20:51:27.953Z,17.33
2022-11-01T20:53:55.618Z,18.25
2022-11-01T20:56:23.241Z,18.17
2022-11-01T20:58:50.691Z,16.00
2022-11-01T21:01:19.188Z,17.20
2022-11-01T21:03:46.923Z,16.95
2022-11-01T21:06:16.708Z,19.25
2022-11-01T21:08:47.486Z,18.20
2022-11-01T21:11:43.773Z,19.20
2022-11-01T21:14:19.483Z,17.45
2022-11-01T21:16:48.203Z,17.23
2022-11-01T21:19:25.061Z,16.80
2022-11-01T21:21:58.710Z,16.20
2022-11-01T21:24:27.912Z,16.90
2022-11-01T21:27:22.741Z,16.90
2022-11-01T21:29:50.489Z,15.95
2022-11-01T21:32:42.526Z,16.73
2022-11-01T21:35:35.985Z,16.12
2022-11-01T21:38:03.754Z,15.57
2022-11-01T21:40:36.713Z,17.80
2022-11-01T21:43:04.317Z,17.70
2022-11-01T21:45:32.098Z,15.88
2022-11-01T21:48:13.986Z,16.60
2022-11-01T21:50:41.579Z,17.50
2022-11-01T21:53:08.919Z,17.95
2022-11-01T21:55:36.261Z,17.52
2022-11-01T21:58:03.839Z,18.40
2022-11-01T22:00:31.154Z,18.25
2022-11-01T22:02:58.775Z,18.83
2022-11-01T22:05:26.132Z,16.92
2022-11-01T22:07:53.430Z,18.02
2022-11-01T22:10:21.019Z,16.87
2022-11-01T22:12:48.347Z,17.65
2022-11-01T22:15:15.667Z,17.15
2022-11-01T22:17:43.250Z,18.58
2022-11-01T22:20:10.810Z,19.75
2022-11-01T22:22:38.131Z,17.05
2022-11-01T22:25:06.614Z,18.50
2022-11-01T22:27:34.032Z,18.77
2022-11-01T22:30:01.363Z,18.23
2022-11-01T22:32:29.411Z,19.23
2022-11-01T22:34:56.727Z,18.12
2022-11-01T22:37:24.208Z,18.17
2022-11-01T22:39:53.120Z,19.00
2022-11-01T22:42:21.898Z,17.37
2022-11-01T22:44:49.234Z,17.52
2022-11-01T22:47:27.319Z,16.00
2022-11-01T22:49:55.843Z,16.85
2022-11-01T22:52:45.741Z,17.35
2022-11-01T22:55:13.069Z,18.92
2022-11-01T22:58:03.941Z,17.52
2022-11-01T23:00:41.249Z,15.98
2022-11-01T23:03:41.371Z,15.82
2022-11-01T23:06:21.829Z,16.23
2022-11-01T23:08:49.403Z,16.60
2022-11-01T23:11:37.414Z,17.12
2022-11-01T23:14:31.222Z,16.25
2022-11-01T23:16:58.533Z,14.82
2022-11-01T23:19:26.167Z,14.77
2022-11-01T23:21:53.551Z,14.05
2022-11-01T23:24:20.923Z,14.65
2022-11-01T23:26:48.592Z,14.45
2022-11-01T23:29:15.951Z,14.73
2022-11-01T23:31:43.243Z,14.35
2022-11-01T23:34:11.769Z,14.52
2022-11-01T23:36:39.131Z,14.00
2022-11-01T23:39:11.680Z,14.43
2022-11-01T23:42:05.743Z,13.57
2022-11-01T23:44:37.062Z,13.50
2022-11-01T23:47:14.446Z,15.85
2022-11-01T23:49:41.804Z,15.05
2022-11-01T23:52:33.362Z,14.93
2022-11-01T23:55:00.804Z,13.15
2022-11-01T23:57:28.371Z,12.80
2022-11-01T23:59:55.662Z,14.60
